createdAt,value
2023-06-12T00:00:40.451Z,5.23
2023-06-12T00:05:46.822Z,5.03
2023-06-12T00:10:50.359Z,4.99
2023-06-12T00:15:54.651Z,4.89
2023-06-12T00:20:59.598Z,4.82
2023-06-12T00:26:04.286Z,4.72
2023-06-12T00:31:07.798Z,4.73
2023-06-12T00:36:14.067Z,4.74
2023-06-12T00:41:17.499Z,4.70
2023-06-12T00:46:21.868Z,4.70
2023-06-12T00:51:29.667Z,4.70
2023-06-12T00:56:33.292Z,4.75
2023-06-12T01:01:37.556Z,4.77
2023-06-12T01:06:50.085Z,4.80
2023-06-12T01:11:55.024Z,4.84
2023-06-12T01:16:59.984Z,4.89
2023-06-12T01:22:11.239Z,4.89
2023-06-12T01:27:44.751Z,4.97
2023-06-12T01:32:52.622Z,5.03
2023-06-12T01:38:06.187Z,5.12
2023-06-12T01:43:09.704Z,5.22
2023-06-12T01:48:15.517Z,5.28
2023-06-12T01:53:18.988Z,5.39
2023-06-12T01:58:22.725Z,5.49
2023-06-12T02:03:28.072Z,5.66
2023-06-12T02:08:31.641Z,5.78
2023-06-12T02:13:35.330Z,5.94
2023-06-12T02:18:41.614Z,6.10
2023-06-12T02:24:05.835Z,6.26
2023-06-12T02:29:11.007Z,6.38
2023-06-12T02:34:16.048Z,6.49
2023-06-12T02:39:20.003Z,6.55
2023-06-12T02:44:23.483Z,6.77
2023-06-12T02:49:30.785Z,6.93
2023-06-12T02:54:35.002Z,7.03
2023-06-12T02:59:39.146Z,7.31
2023-06-12T03:04:44.099Z,7.46
2023-06-12T03:09:48.050Z,7.64
2023-06-12T03:14:52.321Z,7.80
2023-06-12T03:19:57.331Z,7.98
2023-06-12T03:25:01.035Z,8.13
2023-06-12T03:30:04.719Z,8.32
2023-06-12T03:35:11.709Z,8.53
2023-06-12T03:40:15.898Z,8.75
2023-06-12T03:45:19.426Z,9.00
2023-06-12T03:50:24.964Z,9.16
2023-06-12T03:55:28.959Z,9.43
2023-06-12T04:00:32.450Z,9.67
2023-06-12T04:05:37.474Z,9.91
2023-06-12T04:10:41.829Z,10.17
2023-06-12T04:15:45.424Z,10.16
2023-06-12T04:20:50.654Z,10.65
2023-06-12T04:25:55.448Z,10.90
2023-06-12T04:30:59.378Z,11.15
2023-06-12T04:36:05.187Z,11.41
2023-06-12T04:41:11.263Z,11.67
2023-06-12T04:46:14.810Z,11.96
2023-06-12T04:51:19.987Z,12.28
2023-06-12T04:56:23.576Z,12.57
2023-06-12T05:01:27.071Z,12.86
2023-06-12T05:06:34.252Z,13.10
2023-06-12T05:11:38.018Z,13.37
2023-06-12T05:16:41.529Z,13.42
2023-06-12T05:21:46.547Z,13.73
2023-06-12T05:26:50.028Z,13.82
2023-06-12T05:31:53.434Z,13.92
2023-06-12T05:36:59.029Z,14.20
2023-06-12T05:42:02.440Z,14.49
2023-06-12T05:47:06.215Z,14.63
2023-06-12T05:52:12.565Z,14.76
2023-06-12T05:57:16.692Z,14.90
2023-06-12T06:02:20.534Z,15.15
2023-06-12T06:07:26.130Z,15.36
2023-06-12T06:12:29.644Z,15.59
2023-06-12T06:17:33.307Z,15.80
2023-06-12T06:22:38.366Z,16.07
2023-06-12T06:27:41.976Z,16.23
2023-06-12T06:32:45.585Z,16.31
2023-06-12T06:37:50.749Z,16.45
2023-06-12T06:42:54.567Z,16.67
2023-06-12T06:47:58.019Z,16.90
2023-06-12T06:53:03.591Z,17.15
2023-06-12T06:58:07.177Z,17.11
2023-06-12T07:03:11.281Z,17.22
2023-06-12T07:08:16.406Z,17.22
2023-06-12T07:13:20.272Z,17.42
2023-06-12T07:18:23.789Z,17.54
2023-06-12T07:23:28.774Z,17.41
2023-06-12T07:28:32.470Z,17.54
2023-06-12T07:33:36.207Z,17.63
2023-06-12T07:38:41.209Z,18.06
2023-06-12T07:43:44.712Z,18.08
2023-06-12T07:48:48.448Z,18.46
2023-06-12T07:53:53.448Z,18.74
2023-06-12T07:58:57.011Z,18.84
2023-06-12T08:04:00.571Z,18.79
2023-06-12T08:09:05.533Z,19.07
2023-06-12T08:14:09.432Z,19.23
2023-06-12T08:19:14.236Z,19.51
2023-06-12T08:24:19.064Z,20.21
2023-06-12T08:29:22.724Z,22.73
2023-06-12T08:34:27.454Z,25.05
2023-06-12T08:39:32.700Z,27.41
2023-06-12T08:44:36.625Z,29.93
2023-06-12T08:49:40.495Z,32.42
2023-06-12T08:54:47.906Z,34.14
2023-06-12T08:59:51.937Z,35.51
2023-06-12T09:05:02.723Z,36.85
2023-06-12T09:10:14.967Z,38.46
2023-06-12T09:15:19.715Z,39.29
2023-06-12T09:20:41.726Z,39.87
2023-06-12T09:26:13.192Z,41.27
2023-06-12T09:31:12.241Z,41.94
2023-06-12T09:36:16.149Z,43.08
2023-06-12T09:41:26.107Z,44.41
2023-06-12T09:46:29.991Z,45.44
2023-06-12T09:51:35.460Z,44.36
2023-06-12T09:56:41.212Z,44.78
2023-06-12T10:01:49.172Z,45.90
2023-06-12T10:06:58.097Z,46.52
2023-06-12T10:12:03.815Z,46.89
2023-06-12T10:17:09.100Z,47.18
2023-06-12T10:22:12.674Z,47.58
2023-06-12T10:27:19.158Z,47.64
2023-06-12T10:32:23.678Z,47.84
2023-06-12T10:37:28.863Z,48.09
2023-06-12T10:42:43.134Z,47.85
2023-06-12T10:48:15.095Z,47.20
2023-06-12T10:53:24.855Z,46.89
2023-06-12T10:58:29.842Z,47.25
2023-06-12T11:03:35.462Z,47.81
2023-06-12T11:08:39.192Z,47.60
2023-06-12T11:13:45.426Z,46.78
2023-06-12T11:18:49.017Z,46.66
2023-06-12T11:23:52.607Z,46.92
2023-06-12T11:28:58.477Z,46.16
2023-06-12T11:34:03.225Z,46.58
2023-06-12T11:44:26.810Z,47.70
2023-06-12T11:49:32.449Z,47.62
2023-06-12T12:00:13.415Z,46.96
2023-06-12T12:05:22.091Z,46.45
2023-06-12T12:10:26.248Z,47.00
2023-06-12T12:15:32.466Z,46.40
2023-06-12T12:20:37.404Z,46.12
2023-06-12T12:25:42.438Z,46.60
2023-06-12T12:30:47.473Z,46.59
2023-06-12T12:35:51.059Z,46.48
2023-06-12T12:40:54.635Z,46.23
2023-06-12T12:45:59.865Z,46.37
2023-06-12T12:51:10.005Z,45.82
2023-06-12T12:56:15.534Z,44.19
2023-06-12T13:01:20.672Z,43.59
2023-06-12T13:06:24.933Z,43.84
2023-06-12T13:11:28.568Z,44.05
2023-06-12T13:16:33.441Z,43.79
2023-06-12T13:21:37.009Z,43.54
2023-06-12T13:26:40.733Z,42.90
2023-06-12T13:31:45.780Z,43.28
2023-06-12T13:36:49.319Z,43.00
2023-06-12T13:41:53.705Z,42.75
2023-06-12T13:46:58.804Z,42.52
2023-06-12T13:52:02.307Z,41.72
2023-06-12T13:57:07.904Z,41.08
2023-06-12T14:02:12.833Z,40.58
2023-06-12T14:07:16.344Z,40.35
2023-06-12T14:12:19.873Z,39.67
2023-06-12T14:17:24.827Z,39.10
2023-06-12T14:22:28.811Z,38.87
2023-06-12T14:27:32.915Z,38.69
2023-06-12T14:32:37.908Z,37.82
2023-06-12T14:37:41.439Z,37.37
2023-06-12T14:42:44.826Z,37.16
2023-06-12T14:47:50.029Z,36.76
2023-06-12T14:52:53.626Z,36.25
2023-06-12T14:57:57.087Z,35.86
2023-06-12T15:03:02.151Z,35.33
2023-06-12T15:08:05.934Z,34.57
2023-06-12T15:13:10.563Z,34.26
2023-06-12T15:18:26.305Z,33.80
2023-06-12T15:23:40.063Z,33.19
2023-06-12T15:28:43.553Z,32.42
2023-06-12T15:33:48.759Z,31.60
2023-06-12T15:38:53.531Z,30.87
2023-06-12T15:43:56.909Z,30.13
2023-06-12T15:49:01.989Z,29.72
2023-06-12T16:49:31.928Z,21.65
2023-06-12T16:54:36.948Z,20.93
2023-06-12T16:59:42.777Z,19.81
2023-06-12T17:04:47.219Z,18.72
2023-06-12T17:09:52.353Z,17.97
2023-06-12T17:14:55.910Z,17.27
2023-06-12T17:19:59.494Z,16.39
2023-06-12T17:25:05.101Z,16.11
2023-06-12T17:30:10.548Z,15.68
2023-06-12T17:35:14.126Z,15.23
2023-06-12T17:40:19.183Z,14.81
2023-06-12T17:45:23.921Z,14.46
2023-06-12T17:50:30.764Z,14.10
2023-06-12T17:55:35.767Z,13.81
2023-06-12T18:00:39.596Z,13.58
2023-06-12T18:05:43.626Z,13.36
2023-06-12T18:10:48.703Z,13.16
2023-06-12T18:15:52.136Z,12.92
2023-06-12T18:20:55.705Z,12.70
2023-06-12T18:26:01.031Z,12.38
2023-06-12T18:31:04.694Z,12.28
2023-06-12T18:36:09.660Z,12.12
2023-06-12T18:41:15.274Z,11.68
2023-06-12T18:46:23.858Z,11.71
2023-06-12T18:51:27.817Z,11.54
2023-06-12T18:56:34.838Z,11.37
2023-06-12T19:01:38.379Z,11.22
2023-06-12T19:06:42.723Z,11.11
2023-06-12T19:11:48.038Z,11.02
2023-06-12T19:16:51.680Z,10.95
2023-06-12T19:21:55.395Z,10.95
2023-06-12T19:27:00.351Z,10.90
2023-06-12T19:32:04.021Z,10.86
2023-06-12T19:37:07.595Z,10.75
2023-06-12T19:42:13.021Z,10.53
2023-06-12T19:47:16.612Z,10.67
2023-06-12T19:52:20.120Z,10.60
2023-06-12T19:57:25.657Z,10.52
2023-06-12T20:02:29.198Z,10.46
2023-06-12T20:07:32.901Z,10.39
2023-06-12T20:12:38.401Z,10.31
2023-06-12T20:17:42.124Z,10.22
2023-06-12T20:22:47.261Z,10.10
2023-06-12T20:27:52.290Z,10.00
2023-06-12T20:32:56.551Z,9.95
2023-06-12T20:38:00.281Z,9.84
2023-06-12T20:43:07.950Z,9.75
2023-06-12T20:48:11.644Z,9.71
2023-06-12T20:53:16.586Z,9.67
2023-06-12T20:58:21.482Z,9.56
2023-06-12T21:03:25.129Z,9.45
2023-06-12T21:08:28.819Z,9.37
2023-06-12T21:13:33.696Z,9.30
2023-06-12T21:18:37.210Z,9.21
2023-06-12T21:23:40.736Z,9.07
2023-06-12T21:28:46.022Z,8.99
2023-06-12T21:33:49.592Z,8.91
2023-06-12T21:38:53.136Z,8.84
2023-06-12T21:43:57.978Z,8.82
2023-06-12T21:49:01.603Z,8.75
2023-06-12T21:54:05.282Z,8.67
2023-06-12T21:59:10.761Z,8.58
2023-06-12T22:04:14.360Z,8.49
2023-06-12T22:09:17.871Z,8.40
2023-06-12T22:21:05.701Z,8.27
2023-06-12T22:26:09.872Z,8.12
2023-06-12T22:31:13.468Z,8.01
2023-06-12T22:36:18.538Z,7.94
2023-06-12T22:41:21.999Z,7.84
2023-06-12T22:46:25.638Z,7.76
2023-06-12T22:51:30.714Z,7.66
2023-06-12T22:56:34.225Z,7.53
2023-06-12T23:01:37.766Z,7.40
2023-06-12T23:06:43.243Z,7.33
2023-06-12T23:11:46.739Z,7.24
2023-06-12T23:16:52.971Z,7.16
2023-06-12T23:21:58.003Z,7.10
2023-06-12T23:27:01.689Z,7.04
2023-06-12T23:32:05.870Z,6.98
2023-06-12T23:37:11.037Z,6.91
2023-06-12T23:42:18.666Z,6.83
2023-06-12T23:47:22.489Z,6.77
2023-06-12T23:52:28.014Z,6.70
2023-06-12T23:57:31.684Z,6.58
